Data for 04/26/2014

Time Sea-Level Adjusted Pressure Absolute Pressure Temperature Relative Humidity Dew Point   
(mb) (inHg) (mb) (inHg) (C) (F) (%) (C) (F)
00:05 1004 29.65 833 24.6 6 42.8 82 3.1 37.6
00:10 1004 29.65 833 24.6 6 42.7 81 3 37.4
00:15 1003 29.62 833 24.6 6 42.7 80 2.8 37
00:20 1003 29.62 833 24.6 5.9 42.7 79 2.5 36.5
00:25 1003 29.62 832 24.57 6 42.8 78 2.5 36.6
00:30 1003 29.62 832 24.57 6 42.8 78 2.4 36.3
00:35 1003 29.62 832 24.57 6 42.8 78 2.5 36.5
00:40 1003 29.62 832 24.57 6 42.8 78 2.5 36.4
00:45 1003 29.62 832 24.57 6 42.8 76 2.1 35.9
00:50 1003 29.62 832 24.57 5.9 42.7 76 2.1 35.7
00:55 1003 29.62 832 24.57 5.9 42.6 77 2.2 36
01:00 1003 29.62 832 24.57 5.9 42.6 77 2.1 35.8
01:05 1003 29.62 832 24.57 5.9 42.6 76 2 35.7
01:10 1003 29.62 832 24.57 5.9 42.7 77 2.2 35.9
01:15 1003 29.62 832 24.57 5.9 42.7 77 2.2 36
01:20 1003 29.62 832 24.57 6 42.7 76 2.1 35.8
01:25 1003 29.62 832 24.57 6 42.8 76 2 35.7
01:30 1003 29.62 832 24.57 6 42.8 77 2.2 36
01:35 1003 29.62 832 24.57 6 42.7 77 2.3 36.1
01:40 1003 29.62 832 24.57 5.9 42.7 77 2.2 36
01:45 1003 29.62 832 24.57 5.9 42.6 78 2.4 36.2
01:50 1003 29.62 832 24.57 5.9 42.7 77 2.2 36
01:55 1003 29.62 832 24.57 5.9 42.7 77 2.2 35.9
02:00 1003 29.62 832 24.57 5.9 42.7 78 2.4 36.2
02:05 1003 29.62 832 24.57 5.8 42.5 78 2.3 36.1
02:10 1003 29.62 832 24.57 5.8 42.5 78 2.3 36.1
02:15 1003 29.62 832 24.57 5.8 42.5 78 2.3 36.2
02:20 1003 29.62 832 24.57 5.8 42.4 80 2.5 36.5
02:25 1003 29.62 832 24.57 5.7 42.3 80 2.6 36.6
02:30 1003 29.62 832 24.57 5.7 42.3 80 2.6 36.7
02:35 1003 29.62 832 24.57 5.8 42.4 80 2.7 36.8
02:40 1002 29.59 832 24.57 5.8 42.4 80 2.7 36.8
02:45 1002 29.59 832 24.57 5.8 42.4 80 2.6 36.8
02:50 1002 29.59 832 24.57 5.8 42.5 80 2.6 36.6
02:55 1003 29.62 832 24.57 5.8 42.5 80 2.6 36.8
03:00 1003 29.62 832 24.57 5.7 42.3 80 2.5 36.6
03:05 1003 29.62 832 24.57 5.7 42.3 80 2.5 36.5
03:10 1003 29.62 832 24.57 5.7 42.3 80 2.5 36.5
03:15 1003 29.62 832 24.57 5.6 42.1 79 2.3 36.1
03:20 1003 29.62 832 24.57 5.6 42.1 79 2.2 35.9
03:25 1003 29.62 832 24.57 5.6 42.1 79 2.2 36
03:30 1003 29.62 832 24.57 5.6 42 79 2.2 35.9
03:35 1003 29.62 832 24.57 5.6 42.1 81 2.6 36.7
03:40 1003 29.62 832 24.57 5.5 41.9 86 3.4 38.1
03:45 1003 29.62 832 24.57 5.3 41.5 88 3.5 38.3
03:50 1003 29.62 832 24.57 5.2 41.4 88 3.5 38.2
03:55 1003 29.62 832 24.57 5.1 41.2 88 3.3 37.9
04:00 1003 29.62 832 24.57 5.1 41.2 88 3.3 38
04:05 1003 29.62 832 24.57 5.1 41.1 88 3.3 37.9
04:10 1003 29.62 832 24.57 5.1 41.1 88 3.3 38
04:15 1003 29.62 832 24.57 5.1 41.1 88 3.3 38
04:20 1003 29.62 832 24.57 5.1 41.1 87 3.1 37.6
04:25 1003 29.62 832 24.57 5.1 41.2 87 3.1 37.6
04:30 1003 29.62 832 24.57 5.1 41.2 87 3.1 37.6
04:35 1003 29.62 832 24.57 5.2 41.3 87 3.2 37.7
04:40 1003 29.62 832 24.57 5.1 41.2 88 3.2 37.8
04:45 1003 29.62 832 24.57 5.1 41.2 88 3.3 37.9
04:50 1003 29.62 832 24.57 5.2 41.3 88 3.3 37.9
04:55 1003 29.62 832 24.57 5.2 41.3 88 3.3 38
05:00 1003 29.62 832 24.57 5.2 41.4 88 3.3 38
05:05 1003 29.62 832 24.57 5.2 41.4 87 3.3 38
05:10 1003 29.62 832 24.57 5.3 41.5 87 3.3 38
05:15 1003 29.62 832 24.57 5.3 41.5 87 3.3 38
05:20 1003 29.62 832 24.57 5.3 41.5 87 3.3 38
05:25 1003 29.62 832 24.57 5.3 41.5 86 3.2 37.7
05:30 1003 29.62 832 24.57 5.2 41.4 85 3 37.4
05:35 1003 29.62 832 24.57 5.2 41.3 86 2.9 37.3
05:40 1003 29.62 832 24.57 5.1 41.2 86 3 37.4
05:45 1003 29.62 832 24.57 5.1 41.2 87 3.1 37.5
05:50 1003 29.62 832 24.57 5.1 41.1 86 2.9 37.1
05:55 1003 29.62 832 24.57 4.7 40.5 87 2.7 36.8
06:00 1003 29.62 833 24.6 4.5 40.2 86 2.4 36.2
06:05 1003 29.62 833 24.6 4.4 40 86 2.3 36.2
06:10 1003 29.62 833 24.6 4.4 40 86 2.3 36.1
06:15 1003 29.62 833 24.6 4.5 40.1 86 2.4 36.3
06:20 1003 29.62 833 24.6 4.6 40.3 86 2.4 36.3
06:25 1003 29.62 833 24.6 4.7 40.4 87 2.6 36.7
06:30 1003 29.62 833 24.6 4.8 40.6 87 2.8 37
06:35 1003 29.62 833 24.6 4.9 40.9 87 3 37.3
06:40 1003 29.62 833 24.6 5 41 88 3.1 37.6
06:45 1003 29.62 833 24.6 5.1 41.1 89 3.3 38
06:50 1003 29.62 833 24.6 5.1 41.2 89 3.4 38.1
06:55 1003 29.62 833 24.6 4.9 40.9 89 3.3 38
07:00 1003 29.62 833 24.6 4.9 40.7 90 3.3 38
07:05 1004 29.65 833 24.6 4.9 40.7 90 3.4 38.2
07:10 1004 29.65 833 24.6 4.9 40.8 91 3.5 38.3
07:15 1004 29.65 833 24.6 4.9 40.9 91 3.6 38.5
07:20 1004 29.65 833 24.6 5 41.1 92 3.8 38.8
07:25 1004 29.65 833 24.6 5.1 41.2 92 3.9 39
07:30 1004 29.65 833 24.6 5.2 41.3 92 4 39.1
07:35 1004 29.65 833 24.6 5 41 93 4 39.1
07:40 1004 29.65 833 24.6 5.1 41.1 93 4.1 39.4
07:45 1004 29.65 833 24.6 5.2 41.3 93 4.1 39.4
07:50 1004 29.65 833 24.6 5.2 41.3 93 4.1 39.5
07:55 1004 29.65 833 24.6 5.2 41.4 93 4.2 39.5
08:00 1004 29.65 833 24.6 5.2 41.3 93 4.1 39.5
08:05 1004 29.65 833 24.6 5.1 41.2 93 4.1 39.4
08:10 1004 29.65 833 24.6 5.1 41.2 93 4.1 39.4
08:15 1004 29.65 833 24.6 5.1 41.1 93 4.1 39.3
08:20 1004 29.65 833 24.6 5.1 41.2 93 4.1 39.4
08:25 1004 29.65 833 24.6 5.1 41.1 93 4.1 39.3
08:30 1004 29.65 833 24.6 5 41.1 94 4.1 39.4
08:35 1004 29.65 833 24.6 5.1 41.2 93 4.1 39.4
08:40 1004 29.65 833 24.6 5.1 41.2 93 4.1 39.3
08:45 1004 29.65 833 24.6 5.3 41.5 93 4.2 39.5
08:50 1004 29.65 833 24.6 5.4 41.7 92 4.3 39.7
08:55 1004 29.65 833 24.6 5.5 41.9 92 4.3 39.7
09:00 1004 29.65 833 24.6 5.6 42 91 4.3 39.7
09:05 1004 29.65 833 24.6 5.5 42 88 3.7 38.6
09:10 1004 29.65 833 24.6 5.5 41.9 88 3.6 38.5
09:15 1004 29.65 833 24.6 5.6 42.1 88 3.7 38.7
09:20 1003 29.62 833 24.6 5.6 42.1 87 3.6 38.5
09:25 1003 29.62 833 24.6 5.8 42.5 86 3.7 38.7
09:30 1003 29.62 833 24.6 6 42.8 84 3.4 38.2
09:35 1004 29.65 833 24.6 6.1 43 84 3.6 38.4
09:40 1004 29.65 833 24.6 6.2 43.1 84 3.7 38.7
09:45 1004 29.65 833 24.6 6.3 43.3 84 3.8 38.9
09:50 1004 29.65 833 24.6 6.2 43.2 82 3.4 38.2
09:55 1004 29.65 833 24.6 6.2 43.1 83 3.4 38.2
10:00 1004 29.65 833 24.6 6.2 43.2 82 3.4 38.2
10:05 1004 29.65 833 24.6 6.2 43.2 84 3.7 38.6
10:10 1004 29.65 833 24.6 6.3 43.3 82 3.4 38.2
10:15 1004 29.65 833 24.6 6.2 43.2 80 3.1 37.5
10:20 1004 29.65 833 24.6 6.3 43.3 81 3.3 38
10:25 1004 29.65 833 24.6 6.5 43.7 80 3.3 38
10:30 1004 29.65 833 24.6 6.6 43.9 80 3.3 38
10:35 1004 29.65 833 24.6 6.6 43.8 79 3.2 37.7
10:40 1004 29.65 833 24.6 6.5 43.6 80 3.2 37.8
10:45 1003 29.62 833 24.6 6.4 43.5 76 2.4 36.3
10:50 1004 29.65 833 24.6 6.6 43.9 74 2.3 36.1
10:55 1003 29.62 833 24.6 6.9 44.4 76 2.9 37.2
11:00 1003 29.62 833 24.6 7.3 45.1 72 2.6 36.8
11:05 1003 29.62 833 24.6 7.5 45.4 73 2.9 37.3
11:10 1003 29.62 833 24.6 7.6 45.7 70 2.4 36.4
11:15 1003 29.62 833 24.6 7.5 45.4 71 2.6 36.7
11:20 1004 29.65 833 24.6 7.2 45 71 2.4 36.2
11:25 1004 29.65 833 24.6 7.2 44.9 73 2.7 36.9
11:30 1004 29.65 833 24.6 7.3 45.1 73 2.8 37
11:35 1003 29.62 833 24.6 7.3 45.2 71 2.4 36.4
11:40 1004 29.65 833 24.6 7.2 44.9 68 1.7 35.1
11:45 1003 29.62 833 24.6 7.3 45.2 68 1.8 35.2
11:50 1003 29.62 833 24.6 8 46.3 66 2.1 35.7
11:55 1003 29.62 833 24.6 8.1 46.5 65 1.9 35.5
12:00 1003 29.62 833 24.6 7.8 46.1 67 2.1 35.8
12:05 1003 29.62 833 24.6 7.7 45.8 67 1.9 35.5
12:10 1003 29.62 833 24.6 7.6 45.7 66 1.8 35.2
12:15 1003 29.62 833 24.6 7.7 45.9 66 1.8 35.2
12:20 1003 29.62 833 24.6 7.9 46.2 65 1.7 35
12:25 1003 29.62 833 24.6 7.7 45.8 68 2.1 35.7
12:30 1003 29.62 832 24.57 7.7 45.9 65 1.6 34.9
12:35 1003 29.62 832 24.57 7.3 45.1 68 1.8 35.2
12:40 1003 29.62 832 24.57 7.2 44.9 68 1.6 34.9
12:45 1003 29.62 832 24.57 7.7 45.9 65 1.5 34.8
12:50 1003 29.62 832 24.57 8 46.4 65 1.9 35.5
12:55 1003 29.62 832 24.57 7.7 45.8 67 1.9 35.4
13:00 1003 29.62 832 24.57 7.7 45.8 68 2.1 35.8
13:05 1003 29.62 832 24.57 7.7 45.8 67 1.9 35.5
13:10 1003 29.62 832 24.57 7.4 45.2 69 2.1 35.8
13:15 1003 29.62 832 24.57 7.3 45.1 69 1.9 35.4
13:20 1003 29.62 832 24.57 7.2 44.9 69 2 35.5
13:25 1003 29.62 832 24.57 7.2 45 71 2.4 36.3
13:30 1003 29.62 832 24.57 7.2 44.9 74 2.8 37
13:35 1003 29.62 832 24.57 7.1 44.7 77 3.2 37.8
13:40 1003 29.62 832 24.57 7.1 44.8 73 2.7 36.8
13:45 1003 29.62 832 24.57 6.4 43.6 77 2.7 36.9
13:50 1003 29.62 832 24.57 6.2 43.2 79 2.8 37.1
13:55 1003 29.62 832 24.57 6 42.8 81 3 37.4
14:00 1003 29.62 832 24.57 6 42.8 81 3 37.4
14:05 1003 29.62 832 24.57 5.9 42.7 84 3.4 38.1
14:10 1003 29.62 832 24.57 6 42.7 85 3.7 38.6
14:15 1003 29.62 832 24.57 6.1 43 84 3.7 38.6
14:20 1003 29.62 832 24.57 6.2 43.2 82 3.4 38.1
14:25 1003 29.62 832 24.57 6.2 43.1 82 3.4 38
14:30 1003 29.62 832 24.57 6.2 43.1 82 3.3 37.9
14:35 1003 29.62 832 24.57 6.4 43.5 82 3.5 38.3
14:40 1003 29.62 832 24.57 6.6 43.9 79 3.3 38
14:45 1003 29.62 832 24.57 6.6 43.9 80 3.5 38.2
14:50 1003 29.62 832 24.57 6.8 44.2 80 3.7 38.6
14:55 1003 29.62 832 24.57 7.1 44.8 75 2.9 37.2
15:00 1003 29.62 832 24.57 7.3 45.2 78 3.8 38.8
15:05 1003 29.62 832 24.57 6.3 43.3 83 3.7 38.6
15:10 1003 29.62 832 24.57 6.2 43.2 82 3.4 38.2
15:15 1003 29.62 832 24.57 6.2 43.1 85 3.9 39
15:20 1003 29.62 832 24.57 6.3 43.4 82 3.5 38.3
15:25 1003 29.62 832 24.57 6.7 44 81 3.6 38.5
15:30 1003 29.62 832 24.57 6.7 44.1 72 2.1 35.7
15:35 1003 29.62 832 24.57 6.9 44.4 79 3.5 38.2
15:40 1003 29.62 832 24.57 6.8 44.2 79 3.3 38
15:45 1003 29.62 832 24.57 6.8 44.2 71 2 35.5
15:50 1003 29.62 832 24.57 7.4 45.4 69 2.1 35.7
15:55 1003 29.62 832 24.57 7.8 46 65 1.6 35
16:00 1003 29.62 832 24.57 7.5 45.5 68 2.1 35.7
16:05 1003 29.62 832 24.57 7.2 45 68 1.8 35.3
16:10 1003 29.62 832 24.57 7.1 44.9 65 1 33.9
16:15 1003 29.62 832 24.57 7.5 45.5 61 0.5 32.8
16:20 1003 29.62 832 24.57 7.8 46 59 0.3 32.5
16:25 1003 29.62 832 24.57 8 46.3 55 -0.5 31.1
16:30 1003 29.62 832 24.57 8.1 46.6 52 -1.2 29.8
16:35 1003 29.62 832 24.57 8.2 46.7 53 -0.7 30.7
16:40 1003 29.62 832 24.57 8.1 46.6 55 -0.4 31.3
16:45 1003 29.62 832 24.57 7.9 46.3 55 -0.5 31.2
16:50 1003 29.62 832 24.57 7.9 46.2 54 -0.8 30.6
16:55 1003 29.62 832 24.57 7.7 45.9 55 -0.6 30.9
17:00 1003 29.62 833 24.6 7.6 45.6 58 -0.2 31.6
17:05 1003 29.62 833 24.6 7.5 45.5 58 -0.3 31.5
17:10 1003 29.62 833 24.6 7.5 45.5 59 0.1 32.2
17:15 1003 29.62 833 24.6 7.5 45.6 60 0.3 32.5
17:20 1004 29.65 833 24.6 7.4 45.3 58 -0.4 31.3
17:25 1004 29.65 833 24.6 7.1 44.7 60 -0.2 31.7
17:30 1004 29.65 833 24.6 6.6 43.9 64 0.3 32.5
17:35 1004 29.65 833 24.6 6.3 43.4 66 0.3 32.6
17:40 1004 29.65 833 24.6 6.2 43.1 68 0.7 33.2
17:45 1004 29.65 833 24.6 6.1 42.9 68 0.6 33
17:50 1004 29.65 833 24.6 5.9 42.6 69 0.7 33.2
17:55 1004 29.65 833 24.6 5.7 42.3 70 0.8 33.4
18:00 1004 29.65 833 24.6 5.7 42.3 74 1.5 34.7
18:05 1004 29.65 833 24.6 5.7 42.2 74 1.4 34.6
18:10 1004 29.65 833 24.6 5.6 42.2 76 1.7 35.1
18:15 1004 29.65 833 24.6 5.4 41.6 74 1.1 34
18:20 1004 29.65 833 24.6 5.2 41.3 73 0.7 33.2
18:25 1004 29.65 833 24.6 5.1 41.2 74 0.9 33.6
18:30 1004 29.65 833 24.6 5 40.9 76 1.2 34.1
18:35 1004 29.65 834 24.63 4.9 40.7 78 1.3 34.4
18:40 1004 29.65 834 24.63 4.9 40.7 78 1.3 34.4
18:45 1004 29.65 834 24.63 4.7 40.5 81 1.8 35.2
18:50 1005 29.68 834 24.63 4.6 40.3 82 1.8 35.2
18:55 1005 29.68 834 24.63 4.5 40.1 82 1.7 35.1
19:00 1005 29.68 834 24.63 4.2 39.6 83 1.6 35
19:05 1005 29.68 834 24.63 4 39.2 84 1.6 34.9
19:10 1005 29.68 834 24.63 3.8 38.8 86 1.6 34.9
19:15 1005 29.68 834 24.63 3.6 38.5 85 1.4 34.5
19:20 1005 29.68 834 24.63 3.5 38.2 85 1.2 34.1
19:25 1005 29.68 834 24.63 3.4 38.1 86 1.3 34.4
19:30 1005 29.68 834 24.63 3.4 38 87 1.4 34.6
19:35 1005 29.68 834 24.63 3.3 37.9 86 1.1 34
19:40 1005 29.68 835 24.66 3.2 37.7 86 1 33.9
19:45 1005 29.68 835 24.66 3 37.4 86 0.9 33.6
19:50 1006 29.71 835 24.66 2.9 37.3 87 1 33.8
19:55 1006 29.71 835 24.66 2.9 37.2 88 1 33.9
20:00 1006 29.71 835 24.66 2.9 37.2 88 1.1 33.9
20:05 1006 29.71 835 24.66 2.9 37.2 88 1.1 34
20:10 1006 29.71 835 24.66 2.9 37.2 88 1.1 34
20:15 1006 29.71 835 24.66 2.8 37 88 1 33.9
20:20 1006 29.71 835 24.66 2.7 36.9 89 1.1 33.9
20:25 1006 29.71 835 24.66 2.7 36.9 89 1.1 34.1
20:30 1006 29.71 835 24.66 2.7 36.9 89 1.1 34
20:35 1006 29.71 835 24.66 2.7 36.8 89 1 33.9
20:40 1006 29.71 835 24.66 2.6 36.8 89 1 33.7
20:45 1006 29.71 835 24.66 2.6 36.7 89 0.9 33.7
20:50 1006 29.71 836 24.69 2.6 36.7 89 1 33.9
20:55 1006 29.71 836 24.69 2.6 36.7 89 1 33.8
21:00 1006 29.71 836 24.69 2.6 36.7 89 0.9 33.7
21:05 1006 29.71 836 24.69 2.5 36.5 89 0.9 33.6
21:10 1006 29.71 836 24.69 2.5 36.4 90 1 33.8
21:15 1006 29.71 836 24.69 2.4 36.3 90 1 33.8
21:20 1006 29.71 836 24.69 2.3 36.1 90 0.9 33.6
21:25 1006 29.71 836 24.69 2.1 35.9 90 0.6 33.1
21:30 1006 29.71 836 24.69 1.4 34.5 92 0.3 32.5
21:35 1006 29.71 836 24.69 1.2 34.1 93 0.2 32.3
21:40 1006 29.71 836 24.69 1.1 34 94 0.2 32.4
21:45 1007 29.74 836 24.69 1 33.8 94 0.1 32.1
21:50 1007 29.74 836 24.69 0.9 33.7 94 0.1 32.1
21:55 1007 29.74 836 24.69 1 33.8 94 0.2 32.3
22:00 1006 29.71 836 24.69 1 33.9 94 0.2 32.4
22:05 1007 29.74 836 24.69 1.1 34 95 0.3 32.6
22:10 1007 29.74 836 24.69 1.4 34.5 95 0.6 33.1
22:15 1007 29.74 836 24.69 1.6 34.8 93 0.6 33.1
22:20 1007 29.74 836 24.69 1.6 34.9 92 0.5 32.9
22:25 1007 29.74 836 24.69 1.6 34.8 93 0.5 32.9
22:30 1007 29.74 836 24.69 1.6 34.9 93 0.6 33
22:35 1007 29.74 836 24.69 1.3 34.4 93 0.3 32.6
22:40 1007 29.74 836 24.69 1 33.8 94 0.2 32.3
22:45 1007 29.74 836 24.69 1 33.9 95 0.3 32.5
22:50 1007 29.74 836 24.69 1 33.8 95 0.2 32.4
22:55 1007 29.74 836 24.69 0.9 33.5 95 0.1 32.1
23:00 1007 29.74 836 24.69 0.8 33.4 95 0 32
23:05 1007 29.74 836 24.69 0.8 33.5 95 0.1 32.1
23:10 1007 29.74 836 24.69 0.8 33.5 95 0.1 32.1
23:15 1007 29.74 836 24.69 0.8 33.5 95 0.1 32.1
23:20 1007 29.74 836 24.69 0.8 33.5 95 0.1 32.1
23:25 1007 29.74 836 24.69 0.8 33.5 95 0.1 32.1
23:30 1007 29.74 836 24.69 0.9 33.5 95 0.1 32.2
23:35 1007 29.74 836 24.69 0.8 33.5 94 0 32
23:40 1007 29.74 836 24.69 0.8 33.5 95 0 32.1
23:45 1007 29.74 836 24.69 0.9 33.5 95 0.1 32.1
23:50 1007 29.74 836 24.69 0.8 33.5 94 0 32
23:55 1007 29.74 836 24.69 0.8 33.4 95 -0 32
24:00 1007 29.74 836 24.69 0.8 33.4 95 -0 32